GLO1713 SBCY-SBBR
Flight info
| Callsign | GLO1713 |
|---|---|
| Flight time | N/A |
| Altitude | 37000 |
| Route | TORAB UZ8 MABMA DCT UBSUS |
| Aircraft | B738/M-SDE2E3FGHIRWXY/LB1 |
Departure
| Time | 2026-04-20 01:54 |
|---|---|
| Airport | Várzea Grande–Marechal Rondon International Airport (SBCY) |
Arrival
| Time | N/A |
|---|---|
| Airport | Presidente Juscelino Kubitschek International Airport (SBBR) |
| Time | Latitude | Longitude | Altitude | Speed | Heading |
|---|---|---|---|---|---|
| 2026-04-20 01:35 | -15.65008 | -56.12000 | 596 ft | 0 kts | 242° |
| 2026-04-20 01:47 | -15.65006 | -56.11997 | 596 ft | 3 kts | 242° |
| 2026-04-20 01:47 | -15.64995 | -56.11976 | 596 ft | 4 kts | 219° |
| 2026-04-20 01:47 | -15.64974 | -56.11970 | 595 ft | 4 kts | 159° |
| 2026-04-20 01:47 | -15.64959 | -56.11978 | 595 ft | 1 kts | 153° |
| 2026-04-20 01:48 | -15.64956 | -56.11979 | 595 ft | 0 kts | 153° |
| 2026-04-20 01:49 | -15.64957 | -56.11979 | 595 ft | 0 kts | 153° |
| 2026-04-20 01:49 | -15.64971 | -56.11971 | 595 ft | 6 kts | 153° |
| 2026-04-20 01:50 | -15.65011 | -56.11950 | 596 ft | 7 kts | 153° |
| 2026-04-20 01:50 | -15.65053 | -56.11928 | 596 ft | 7 kts | 153° |
| 2026-04-20 01:50 | -15.65087 | -56.11899 | 596 ft | 7 kts | 111° |
| 2026-04-20 01:50 | -15.65075 | -56.11856 | 596 ft | 6 kts | 65° |
| 2026-04-20 01:51 | -15.65052 | -56.11817 | 597 ft | 6 kts | 39° |
| 2026-04-20 01:51 | -15.65007 | -56.11821 | 596 ft | 8 kts | 334° |
| 2026-04-20 01:51 | -15.64941 | -56.11856 | 595 ft | 14 kts | 333° |
| 2026-04-20 01:51 | -15.64847 | -56.11905 | 595 ft | 15 kts | 333° |
| 2026-04-20 01:52 | -15.64757 | -56.11955 | 595 ft | 14 kts | 333° |
| 2026-04-20 01:52 | -15.64670 | -56.12001 | 595 ft | 14 kts | 333° |
| 2026-04-20 01:52 | -15.64587 | -56.12045 | 594 ft | 13 kts | 333° |
| 2026-04-20 01:52 | -15.64507 | -56.12088 | 595 ft | 13 kts | 333° |
| 2026-04-20 01:53 | -15.64439 | -56.12142 | 595 ft | 12 kts | 300° |
| 2026-04-20 01:53 | -15.64402 | -56.12171 | 595 ft | 5 kts | 15° |
| 2026-04-20 01:53 | -15.64408 | -56.12144 | 595 ft | 5 kts | 130° |
| 2026-04-20 01:53 | -15.64462 | -56.12111 | 595 ft | 14 kts | 151° |
| 2026-04-20 01:54 | -15.64720 | -56.11974 | 595 ft | 78 kts | 152° |
| 2026-04-20 01:54 | -15.65409 | -56.11608 | 598 ft | 143 kts | 153° |
| 2026-04-20 01:54 | -15.66067 | -56.11260 | 656 ft | 173 kts | 153° |
| 2026-04-20 01:54 | -15.67170 | -56.10672 | 1329 ft | 178 kts | 153° |
| 2026-04-20 01:55 | -15.68178 | -56.09927 | 2084 ft | 184 kts | 122° |
| 2026-04-20 01:55 | -15.68440 | -56.08616 | 2581 ft | 201 kts | 82° |
| 2026-04-20 01:55 | -15.68129 | -56.06560 | 2896 ft | 234 kts | 82° |
| 2026-04-20 01:55 | -15.67937 | -56.04831 | 3246 ft | 246 kts | 83° |
| 2026-04-20 01:56 | -15.67825 | -56.03604 | 3427 ft | 260 kts | 84° |
| 2026-04-20 01:56 | -15.67660 | -56.01685 | 3881 ft | 272 kts | 84° |
| 2026-04-20 01:56 | -15.67517 | -55.99721 | 4768 ft | 272 kts | 85° |
| 2026-04-20 01:56 | -15.67278 | -55.97127 | 5608 ft | 270 kts | 78° |
| 2026-04-20 01:57 | -15.66981 | -55.95857 | 5867 ft | 269 kts | 73° |
| 2026-04-20 01:57 | -15.66457 | -55.93954 | 5905 ft | 278 kts | 73° |
| 2026-04-20 01:57 | -15.65940 | -55.92025 | 5918 ft | 277 kts | 74° |
| 2026-04-20 01:57 | -15.65442 | -55.90107 | 5916 ft | 273 kts | 75° |
| 2026-04-20 01:58 | -15.65330 | -55.88140 | 6108 ft | 279 kts | 99° |
| 2026-04-20 01:58 | -15.65901 | -55.86204 | 6870 ft | 281 kts | 111° |
| 2026-04-20 01:58 | -15.66682 | -55.84342 | 7664 ft | 283 kts | 113° |
| 2026-04-20 01:58 | -15.67516 | -55.82480 | 8396 ft | 286 kts | 114° |
| 2026-04-20 01:59 | -15.68364 | -55.80604 | 9164 ft | 288 kts | 114° |
| 2026-04-20 01:59 | -15.69204 | -55.78738 | 9867 ft | 291 kts | 114° |
| 2026-04-20 01:59 | -15.70065 | -55.76805 | 10342 ft | 304 kts | 114° |
| 2026-04-20 01:59 | -15.70979 | -55.74734 | 10504 ft | 326 kts | 114° |
| 2026-04-20 02:00 | -15.71945 | -55.72532 | 10757 ft | 343 kts | 114° |
| 2026-04-20 02:00 | -15.72938 | -55.70257 | 11299 ft | 348 kts | 114° |
| 2026-04-20 02:00 | -15.73943 | -55.67952 | 11919 ft | 352 kts | 114° |
| 2026-04-20 02:00 | -15.74953 | -55.65630 | 12580 ft | 354 kts | 114° |
| 2026-04-20 02:01 | -15.75968 | -55.63290 | 13217 ft | 357 kts | 114° |
| 2026-04-20 02:01 | -15.76992 | -55.60928 | 13811 ft | 360 kts | 114° |
| 2026-04-20 02:01 | -15.78024 | -55.58542 | 14394 ft | 364 kts | 114° |
| 2026-04-20 02:01 | -15.79066 | -55.56137 | 14998 ft | 366 kts | 114° |
| 2026-04-20 02:02 | -15.80116 | -55.53713 | 15553 ft | 370 kts | 114° |
| 2026-04-20 02:02 | -15.81176 | -55.51266 | 16093 ft | 373 kts | 114° |
| 2026-04-20 02:02 | -15.82245 | -55.48797 | 16623 ft | 376 kts | 114° |
| 2026-04-20 02:02 | -15.83321 | -55.46311 | 17170 ft | 379 kts | 114° |
| 2026-04-20 02:03 | -15.84403 | -55.43807 | 17671 ft | 382 kts | 114° |
| 2026-04-20 02:03 | -15.85495 | -55.41279 | 18150 ft | 385 kts | 114° |
| 2026-04-20 02:03 | -15.86596 | -55.38730 | 18625 ft | 388 kts | 114° |
| 2026-04-20 02:03 | -15.87705 | -55.36163 | 19080 ft | 391 kts | 114° |
| 2026-04-20 02:04 | -15.88821 | -55.33578 | 19532 ft | 394 kts | 114° |
| 2026-04-20 02:04 | -15.89946 | -55.30971 | 19975 ft | 397 kts | 114° |
| 2026-04-20 02:04 | -15.91080 | -55.28342 | 20401 ft | 400 kts | 114° |
| 2026-04-20 02:04 | -15.92219 | -55.25702 | 20802 ft | 403 kts | 114° |
| 2026-04-20 02:05 | -15.93367 | -55.23034 | 21211 ft | 405 kts | 115° |
| 2026-04-20 02:05 | -15.94520 | -55.20358 | 21598 ft | 408 kts | 115° |
| 2026-04-20 02:05 | -15.95683 | -55.17659 | 21980 ft | 410 kts | 115° |
| 2026-04-20 02:05 | -15.96852 | -55.14944 | 22353 ft | 413 kts | 115° |
| 2026-04-20 02:06 | -15.97961 | -55.12182 | 22711 ft | 416 kts | 111° |
| 2026-04-20 02:06 | -15.98921 | -55.09338 | 23061 ft | 418 kts | 109° |
| 2026-04-20 02:06 | -15.99823 | -55.06447 | 23389 ft | 422 kts | 109° |
| 2026-04-20 02:06 | -16.00711 | -55.03543 | 23714 ft | 423 kts | 109° |
| 2026-04-20 02:07 | -16.01611 | -55.00620 | 24026 ft | 426 kts | 109° |
| 2026-04-20 02:07 | -16.02527 | -54.97684 | 24324 ft | 428 kts | 109° |
| 2026-04-20 02:07 | -16.03458 | -54.94732 | 24609 ft | 431 kts | 109° |
| 2026-04-20 02:07 | -16.04402 | -54.91762 | 24888 ft | 434 kts | 110° |
| 2026-04-20 02:08 | -16.05355 | -54.88774 | 25173 ft | 437 kts | 110° |
| 2026-04-20 02:08 | -16.06303 | -54.85808 | 25437 ft | 440 kts | 110° |
| 2026-04-20 02:08 | -16.07271 | -54.82784 | 25697 ft | 442 kts | 110° |
| 2026-04-20 02:08 | -16.08243 | -54.79743 | 25959 ft | 445 kts | 110° |
| 2026-04-20 02:09 | -16.09221 | -54.76684 | 26205 ft | 447 kts | 110° |
| 2026-04-20 02:09 | -16.10205 | -54.73601 | 26437 ft | 450 kts | 110° |
| 2026-04-20 02:09 | -16.11193 | -54.70503 | 26677 ft | 453 kts | 110° |
| 2026-04-20 02:09 | -16.12186 | -54.67388 | 26920 ft | 455 kts | 110° |
| 2026-04-20 02:10 | -16.13184 | -54.64255 | 27157 ft | 457 kts | 110° |
| 2026-04-20 02:10 | -16.14185 | -54.61111 | 27392 ft | 460 kts | 110° |
| 2026-04-20 02:10 | -16.15192 | -54.57945 | 27615 ft | 462 kts | 110° |
| 2026-04-20 02:10 | -16.16204 | -54.54762 | 27834 ft | 464 kts | 110° |
| 2026-04-20 02:11 | -16.17221 | -54.51562 | 28051 ft | 467 kts | 110° |
| 2026-04-20 02:11 | -16.18240 | -54.48353 | 28261 ft | 469 kts | 110° |
| 2026-04-20 02:11 | -16.19265 | -54.45124 | 28469 ft | 471 kts | 110° |
| 2026-04-20 02:11 | -16.20294 | -54.41880 | 28662 ft | 473 kts | 110° |
| 2026-04-20 02:12 | -16.21328 | -54.38620 | 28859 ft | 475 kts | 110° |
| 2026-04-20 02:12 | -16.22363 | -54.35353 | 29047 ft | 477 kts | 110° |
| 2026-04-20 02:12 | -16.23485 | -54.32098 | 29227 ft | 479 kts | 113° |
| 2026-04-20 02:12 | -16.24720 | -54.28876 | 29410 ft | 480 kts | 115° |
| 2026-04-20 02:13 | -16.26008 | -54.25663 | 29593 ft | 482 kts | 115° |
| 2026-04-20 02:13 | -16.27308 | -54.22450 | 29789 ft | 483 kts | 115° |
| 2026-04-20 02:13 | -16.28609 | -54.19220 | 29971 ft | 485 kts | 115° |
| 2026-04-20 02:13 | -16.29886 | -54.16016 | 30143 ft | 487 kts | 115° |
| 2026-04-20 02:14 | -16.31193 | -54.12708 | 30327 ft | 488 kts | 115° |
| 2026-04-20 02:14 | -16.32474 | -54.09439 | 30547 ft | 488 kts | 115° |
| 2026-04-20 02:14 | -16.33754 | -54.06164 | 30803 ft | 488 kts | 115° |
| 2026-04-20 02:14 | -16.35012 | -54.02940 | 31095 ft | 486 kts | 115° |
| 2026-04-20 02:15 | -16.36300 | -53.99642 | 31401 ft | 485 kts | 115° |
| 2026-04-20 02:15 | -16.37568 | -53.96393 | 31709 ft | 483 kts | 115° |
| 2026-04-20 02:15 | -16.38832 | -53.93153 | 31997 ft | 482 kts | 115° |
| 2026-04-20 02:15 | -16.40076 | -53.89963 | 32252 ft | 482 kts | 115° |
| 2026-04-20 02:16 | -16.41334 | -53.86734 | 32499 ft | 481 kts | 115° |
| 2026-04-20 02:16 | -16.42594 | -53.83504 | 32765 ft | 481 kts | 115° |
| 2026-04-20 02:16 | -16.43849 | -53.80283 | 33073 ft | 479 kts | 115° |
| 2026-04-20 02:16 | -16.45099 | -53.77071 | 33354 ft | 478 kts | 115° |
| 2026-04-20 02:17 | -16.46347 | -53.73865 | 33592 ft | 478 kts | 116° |
| 2026-04-20 02:17 | -16.47594 | -53.70658 | 33844 ft | 477 kts | 116° |
| 2026-04-20 02:17 | -16.48837 | -53.67459 | 34109 ft | 476 kts | 116° |
| 2026-04-20 02:17 | -16.50078 | -53.64265 | 34345 ft | 475 kts | 116° |
| 2026-04-20 02:18 | -16.51320 | -53.61067 | 34523 ft | 477 kts | 116° |
| 2026-04-20 02:18 | -16.52561 | -53.57866 | 34699 ft | 477 kts | 115° |
| 2026-04-20 02:18 | -16.53799 | -53.54656 | 34923 ft | 477 kts | 115° |
| 2026-04-20 02:18 | -16.55035 | -53.51447 | 35152 ft | 477 kts | 115° |
| 2026-04-20 02:19 | -16.56267 | -53.48243 | 35365 ft | 476 kts | 115° |
| 2026-04-20 02:19 | -16.57501 | -53.45036 | 35505 ft | 477 kts | 115° |
| 2026-04-20 02:19 | -16.58736 | -53.41825 | 35662 ft | 478 kts | 115° |
| 2026-04-20 02:19 | -16.59972 | -53.38606 | 35867 ft | 478 kts | 115° |
| 2026-04-20 02:20 | -16.61206 | -53.35395 | 36098 ft | 477 kts | 115° |
| 2026-04-20 02:20 | -16.62439 | -53.32183 | 36245 ft | 477 kts | 115° |
| 2026-04-20 02:20 | -16.63675 | -53.28964 | 36364 ft | 479 kts | 115° |
| 2026-04-20 02:20 | -16.64913 | -53.25737 | 36515 ft | 479 kts | 115° |
| 2026-04-20 02:21 | -16.67380 | -53.19292 | 36902 ft | 477 kts | 115° |
| 2026-04-20 02:21 | -16.68612 | -53.16080 | 36959 ft | 479 kts | 115° |
| 2026-04-20 02:22 | -16.70903 | -53.09567 | 36957 ft | 478 kts | 107° |
| 2026-04-20 02:22 | -16.71819 | -53.02736 | 36974 ft | 474 kts | 98° |
| 2026-04-20 02:23 | -16.72471 | -52.95884 | 36974 ft | 475 kts | 98° |
| 2026-04-20 02:23 | -16.73150 | -52.89036 | 36972 ft | 475 kts | 98° |
| 2026-04-20 02:24 | -16.73857 | -52.82232 | 36974 ft | 475 kts | 99° |
| 2026-04-20 02:24 | -16.74580 | -52.75386 | 36971 ft | 475 kts | 99° |
| 2026-04-20 02:25 | -16.75305 | -52.68522 | 36972 ft | 476 kts | 99° |
| 2026-04-20 02:25 | -16.76027 | -52.61649 | 36972 ft | 477 kts | 99° |
| 2026-04-20 02:26 | -16.76745 | -52.54762 | 36977 ft | 478 kts | 98° |
| 2026-04-20 02:26 | -16.77464 | -52.47851 | 36972 ft | 479 kts | 99° |
| 2026-04-20 02:27 | -16.78181 | -52.40926 | 36974 ft | 480 kts | 98° |
| 2026-04-20 02:27 | -16.78899 | -52.33994 | 36978 ft | 481 kts | 98° |
| 2026-04-20 02:28 | -16.79610 | -52.27098 | 36981 ft | 481 kts | 98° |
| 2026-04-20 02:28 | -16.80323 | -52.20156 | 36981 ft | 481 kts | 98° |
| 2026-04-20 02:29 | -16.81034 | -52.13211 | 36981 ft | 481 kts | 98° |
| 2026-04-20 02:29 | -16.81739 | -52.06280 | 36976 ft | 480 kts | 98° |
| 2026-04-20 02:30 | -16.82443 | -51.99353 | 36985 ft | 479 kts | 98° |
| 2026-04-20 02:30 | -16.83144 | -51.92439 | 36988 ft | 479 kts | 98° |
| 2026-04-20 02:31 | -16.83844 | -51.85527 | 36993 ft | 479 kts | 98° |
| 2026-04-20 02:31 | -16.84539 | -51.78618 | 36991 ft | 479 kts | 98° |
| 2026-04-20 02:32 | -16.85234 | -51.71702 | 36993 ft | 479 kts | 98° |
| 2026-04-20 02:32 | -16.85925 | -51.64781 | 36997 ft | 479 kts | 98° |
| 2026-04-20 02:33 | -16.86611 | -51.57897 | 36997 ft | 480 kts | 98° |
| 2026-04-20 02:33 | -16.87299 | -51.50958 | 37003 ft | 481 kts | 98° |
| 2026-04-20 02:34 | -16.87986 | -51.44015 | 37004 ft | 481 kts | 98° |
| 2026-04-20 02:34 | -16.88673 | -51.37061 | 37009 ft | 481 kts | 98° |
| 2026-04-20 02:35 | -16.89356 | -51.30104 | 37010 ft | 482 kts | 98° |
| 2026-04-20 02:35 | -16.90038 | -51.23142 | 37011 ft | 482 kts | 98° |
| 2026-04-20 02:36 | -16.90715 | -51.16188 | 37018 ft | 482 kts | 98° |
| 2026-04-20 02:36 | -16.91393 | -51.09222 | 37018 ft | 482 kts | 98° |
| 2026-04-20 02:37 | -16.92069 | -51.02249 | 37025 ft | 482 kts | 98° |
| 2026-04-20 02:37 | -16.92743 | -50.95274 | 37029 ft | 483 kts | 98° |
| 2026-04-20 02:38 | -16.93413 | -50.88299 | 37030 ft | 483 kts | 98° |
| 2026-04-20 02:38 | -16.94077 | -50.81370 | 37035 ft | 482 kts | 98° |
| 2026-04-20 02:39 | -16.94743 | -50.74398 | 37034 ft | 482 kts | 98° |
| 2026-04-20 02:39 | -16.95405 | -50.67435 | 37043 ft | 482 kts | 98° |
| 2026-04-20 02:40 | -16.96067 | -50.60464 | 37048 ft | 482 kts | 98° |
| 2026-04-20 02:40 | -16.96726 | -50.53492 | 37045 ft | 482 kts | 98° |
| 2026-04-20 02:41 | -16.97380 | -50.46528 | 37054 ft | 482 kts | 98° |
| 2026-04-20 02:41 | -16.98032 | -50.39565 | 37052 ft | 482 kts | 98° |
| 2026-04-20 02:42 | -16.98682 | -50.32605 | 37059 ft | 481 kts | 98° |
| 2026-04-20 02:42 | -16.99331 | -50.25643 | 37055 ft | 482 kts | 98° |
| 2026-04-20 02:43 | -16.99977 | -50.18676 | 37066 ft | 482 kts | 98° |
| 2026-04-20 02:43 | -17.00621 | -50.11712 | 37067 ft | 482 kts | 98° |
| 2026-04-20 02:44 | -17.01263 | -50.04736 | 37062 ft | 483 kts | 98° |
| 2026-04-20 02:44 | -17.01586 | -50.01222 | 36620 ft | 490 kts | 98° |
| 2026-04-20 02:44 | -17.01909 | -49.97695 | 36238 ft | 485 kts | 98° |
| 2026-04-20 02:44 | -17.02227 | -49.94199 | 35812 ft | 481 kts | 98° |
| 2026-04-20 02:45 | -17.02543 | -49.90731 | 35390 ft | 478 kts | 99° |
| 2026-04-20 02:45 | -17.02857 | -49.87287 | 34973 ft | 475 kts | 99° |
| 2026-04-20 02:45 | -17.03168 | -49.83868 | 34556 ft | 471 kts | 99° |
| 2026-04-20 02:45 | -17.03452 | -49.80464 | 34147 ft | 470 kts | 95° |
| 2026-04-20 02:46 | -17.03315 | -49.78201 | 33835 ft | 473 kts | 81° |
| 2026-04-20 02:46 | -17.02330 | -49.74930 | 33425 ft | 474 kts | 64° |
| 2026-04-20 02:46 | -17.00566 | -49.72037 | 33011 ft | 471 kts | 53° |
| 2026-04-20 02:46 | -16.98605 | -49.69308 | 32592 ft | 469 kts | 52° |
| 2026-04-20 02:47 | -16.96628 | -49.66616 | 32176 ft | 466 kts | 52° |
| 2026-04-20 02:47 | -16.94027 | -49.63064 | 31646 ft | 463 kts | 52° |
| 2026-04-20 02:47 | -16.92720 | -49.61261 | 31377 ft | 461 kts | 53° |
| 2026-04-20 02:47 | -16.90799 | -49.58589 | 30976 ft | 458 kts | 53° |
| 2026-04-20 02:48 | -16.88902 | -49.55931 | 30580 ft | 456 kts | 53° |
| 2026-04-20 02:48 | -16.87017 | -49.53282 | 30188 ft | 453 kts | 53° |
| 2026-04-20 02:48 | -16.85145 | -49.50648 | 29792 ft | 451 kts | 53° |
| 2026-04-20 02:48 | -16.83306 | -49.48061 | 29394 ft | 448 kts | 53° |
| 2026-04-20 02:49 | -16.81455 | -49.45458 | 28991 ft | 445 kts | 53° |
| 2026-04-20 02:49 | -16.79615 | -49.42872 | 28582 ft | 442 kts | 53° |
| 2026-04-20 02:49 | -16.77786 | -49.40303 | 28174 ft | 439 kts | 53° |
| 2026-04-20 02:49 | -16.75969 | -49.37753 | 27771 ft | 436 kts | 53° |
| 2026-04-20 02:50 | -16.74165 | -49.35223 | 27357 ft | 433 kts | 53° |
| 2026-04-20 02:50 | -16.72373 | -49.32709 | 26965 ft | 430 kts | 53° |
| 2026-04-20 02:50 | -16.70593 | -49.30213 | 26561 ft | 427 kts | 53° |
| 2026-04-20 02:50 | -16.68828 | -49.27738 | 26161 ft | 423 kts | 53° |
| 2026-04-20 02:51 | -16.67077 | -49.25284 | 25765 ft | 420 kts | 53° |
| 2026-04-20 02:51 | -16.65342 | -49.22855 | 25371 ft | 417 kts | 53° |
| 2026-04-20 02:51 | -16.63622 | -49.20439 | 24977 ft | 413 kts | 54° |
| 2026-04-20 02:51 | -16.61981 | -49.17999 | 24578 ft | 409 kts | 56° |
| 2026-04-20 02:52 | -16.60396 | -49.15550 | 24205 ft | 406 kts | 56° |
| 2026-04-20 02:52 | -16.58837 | -49.13113 | 23827 ft | 402 kts | 57° |
| 2026-04-20 02:52 | -16.57293 | -49.10698 | 23444 ft | 398 kts | 57° |
| 2026-04-20 02:52 | -16.55760 | -49.08314 | 23068 ft | 394 kts | 56° |
| 2026-04-20 02:53 | -16.54234 | -49.05951 | 22689 ft | 391 kts | 56° |
| 2026-04-20 02:53 | -16.52719 | -49.03613 | 22317 ft | 387 kts | 56° |
| 2026-04-20 02:53 | -16.51215 | -49.01300 | 21945 ft | 384 kts | 56° |
| 2026-04-20 02:53 | -16.49722 | -48.99006 | 21580 ft | 381 kts | 56° |
| 2026-04-20 02:54 | -16.48241 | -48.96731 | 21215 ft | 377 kts | 56° |
| 2026-04-20 02:54 | -16.46775 | -48.94481 | 20852 ft | 374 kts | 57° |
| 2026-04-20 02:54 | -16.45339 | -48.92276 | 20501 ft | 371 kts | 57° |
| 2026-04-20 02:54 | -16.43895 | -48.90061 | 20144 ft | 368 kts | 57° |
| 2026-04-20 02:55 | -16.42463 | -48.87865 | 19788 ft | 365 kts | 57° |
| 2026-04-20 02:55 | -16.41041 | -48.85686 | 19435 ft | 362 kts | 57° |
| 2026-04-20 02:55 | -16.39632 | -48.83526 | 19064 ft | 359 kts | 57° |
| 2026-04-20 02:55 | -16.38231 | -48.81382 | 18722 ft | 357 kts | 57° |
| 2026-04-20 02:56 | -16.36841 | -48.79252 | 18371 ft | 354 kts | 57° |
| 2026-04-20 02:56 | -16.35462 | -48.77139 | 18006 ft | 352 kts | 57° |
| 2026-04-20 02:56 | -16.34090 | -48.75040 | 17668 ft | 349 kts | 57° |
| 2026-04-20 02:56 | -16.32727 | -48.72953 | 17318 ft | 347 kts | 57° |
| 2026-04-20 02:57 | -16.31372 | -48.70879 | 16971 ft | 347 kts | 57° |
| 2026-04-20 02:57 | -16.29997 | -48.68773 | 16645 ft | 362 kts | 57° |
| 2026-04-20 02:57 | -16.28528 | -48.66523 | 16281 ft | 388 kts | 57° |
| 2026-04-20 02:57 | -16.27005 | -48.64194 | 15840 ft | 388 kts | 57° |
| 2026-04-20 02:58 | -16.25486 | -48.61874 | 15432 ft | 386 kts | 57° |
| 2026-04-20 02:58 | -16.24083 | -48.59507 | 15014 ft | 383 kts | 67° |
| 2026-04-20 02:58 | -16.23353 | -48.56854 | 14586 ft | 381 kts | 78° |
| 2026-04-20 02:58 | -16.22767 | -48.54172 | 14117 ft | 379 kts | 78° |
| 2026-04-20 02:59 | -16.22170 | -48.51510 | 13664 ft | 377 kts | 78° |
| 2026-04-20 02:59 | -16.21563 | -48.48865 | 13216 ft | 375 kts | 77° |
| 2026-04-20 02:59 | -16.20950 | -48.46240 | 12753 ft | 372 kts | 77° |
| 2026-04-20 02:59 | -16.20343 | -48.43671 | 12319 ft | 369 kts | 77° |
| 2026-04-20 03:00 | -16.19733 | -48.41093 | 11874 ft | 366 kts | 77° |
| 2026-04-20 03:00 | -16.19125 | -48.38530 | 11437 ft | 363 kts | 77° |
| 2026-04-20 03:00 | -16.18523 | -48.35990 | 10993 ft | 360 kts | 77° |
| 2026-04-20 03:00 | -16.17924 | -48.33468 | 10548 ft | 357 kts | 77° |
| 2026-04-20 03:01 | -16.17329 | -48.30972 | 10197 ft | 353 kts | 77° |
| 2026-04-20 03:01 | -16.16738 | -48.28474 | 10166 ft | 358 kts | 77° |
| 2026-04-20 03:01 | -16.16123 | -48.25968 | 10135 ft | 356 kts | 73° |
| 2026-04-20 03:01 | -16.14941 | -48.23733 | 10137 ft | 355 kts | 49° |
| 2026-04-20 03:02 | -16.13027 | -48.22098 | 10151 ft | 359 kts | 31° |
| 2026-04-20 03:02 | -16.10693 | -48.21170 | 10149 ft | 361 kts | 15° |
| 2026-04-20 03:02 | -16.08251 | -48.20566 | 10141 ft | 359 kts | 13° |
| 2026-04-20 03:02 | -16.05873 | -48.20005 | 9986 ft | 343 kts | 14° |
| 2026-04-20 03:03 | -16.03522 | -48.19430 | 8795 ft | 354 kts | 14° |
| 2026-04-20 03:03 | -16.01109 | -48.18819 | 7674 ft | 360 kts | 14° |
| 2026-04-20 03:03 | -15.98648 | -48.18276 | 6518 ft | 365 kts | 6° |
| 2026-04-20 03:03 | -15.96095 | -48.18251 | 5386 ft | 367 kts | 4° |
| 2026-04-20 03:04 | -15.93648 | -48.17594 | 4249 ft | 367 kts | 31° |